Time;durP1;ratioP1;P1;durP2;ratioP2;P2;SDS_P1;SDS_P2;PMS_P1;PMS_P2;Temp;Humidity;BMP_temperature;BMP_pressure;BME280_temperature;BME280_humidity;BME280_pressure;Samples;Min_cycle;Max_cycle;Signal;HPM_P1;HPM_P2
2022/08/11 03:01:00;;;;;;;16.17;10.20;;;17.00;99.90;;;;;;5873517;23;21069;-83
2022/08/11 03:03:38;;;;;;;11.55;9.02;;;17.00;99.90;;;;;;4973614;28;20050;-82
2022/08/11 03:06:23;;;;;;;14.43;9.60;;;17.00;99.90;;;;;;4958637;28;20054;-83
2022/08/11 03:08:59;;;;;;;13.70;9.48;;;17.00;99.90;;;;;;4975839;28;20039;-82
2022/08/11 03:17:47;;;;;;;18.58;9.68;;;16.90;99.90;;;;;;4955079;29;20078;-82
2022/08/11 03:20:25;;;;;;;15.77;11.45;;;16.90;99.90;;;;;;4954983;28;20047;-82
2022/08/11 03:23:03;;;;;;;13.88;9.43;;;16.80;99.90;;;;;;4954814;29;20491;-82
2022/08/11 03:25:38;;;;;;;14.07;9.45;;;16.80;99.90;;;;;;4954804;29;20094;-82
2022/08/11 03:28:23;;;;;;;13.33;10.67;;;16.70;99.90;;;;;;4954710;29;20513;-82
2022/08/11 03:31:04;;;;;;;15.98;10.93;;;16.80;99.90;;;;;;4954582;28;20067;-81
2022/08/11 03:34:01;;;;;;;18.35;10.95;;;16.70;99.90;;;;;;4956071;28;20039;-83
2022/08/11 03:36:51;;;;;;;18.13;12.13;;;16.70;99.90;;;;;;4954380;29;20043;-81
2022/08/11 03:39:22;;;;;;;13.77;9.93;;;16.60;99.90;;;;;;4953961;28;20464;-82
2022/08/11 03:42:19;;;;;;;16.83;11.07;;;16.60;99.90;;;;;;4954165;28;20047;-82
2022/08/11 03:45:13;;;;;;;15.45;11.75;;;16.60;99.90;;;;;;4954378;29;20047;-81
2022/08/11 03:47:51;;;;;;;15.52;10.68;;;16.60;99.90;;;;;;4954403;29;20035;-82
2022/08/11 03:50:43;;;;;;;16.48;12.18;;;16.60;99.90;;;;;;4954363;28;20403;-82
2022/08/11 03:53:26;;;;;;;13.82;10.75;;;16.50;99.90;;;;;;4955066;29;20415;-81
2022/08/11 03:56:07;;;;;;;17.10;11.50;;;16.60;99.90;;;;;;4956053;28;20487;-82
2022/08/11 03:59:00;;;;;;;18.38;12.27;;;16.60;99.90;;;;;;4954241;29;20499;-82
2022/08/11 04:01:54;;;;;;;14.80;10.65;;;16.50;99.90;;;;;;4953990;28;20043;-82
2022/08/11 04:04:49;;;;;;;15.18;10.38;;;16.50;99.90;;;;;;4954927;29;20052;-82
2022/08/11 04:07:27;;;;;;;13.63;10.25;;;16.50;99.90;;;;;;4954964;29;20471;-82
2022/08/11 04:10:30;;;;;;;16.65;11.15;;;16.50;99.90;;;;;;4953900;29;20058;-82
2022/08/11 04:13:16;;;;;;;17.63;12.57;;;16.50;99.90;;;;;;4954080;29;20078;-81
2022/08/11 04:16:01;;;;;;;17.00;12.93;;;16.40;99.90;;;;;;4938162;29;20130;-82
2022/08/11 04:18:46;;;;;;;15.13;11.63;;;16.40;99.90;;;;;;4938184;29;20087;-82
2022/08/11 04:21:43;;;;;;;18.73;12.23;;;16.40;99.90;;;;;;4953887;28;20071;-82
2022/08/11 04:24:23;;;;;;;20.95;13.38;;;16.40;99.90;;;;;;4953896;29;20153;-81
2022/08/11 04:27:03;;;;;;;17.17;11.40;;;16.40;99.90;;;;;;4954094;29;20391;-80
2022/08/11 04:29:59;;;;;;;17.02;12.45;;;16.40;99.90;;;;;;4954065;29;20047;-80
2022/08/11 04:32:52;;;;;;;14.88;11.73;;;16.40;99.90;;;;;;4953760;28;20086;-83
2022/08/11 04:35:25;;;;;;;17.52;12.07;;;16.30;99.90;;;;;;4954265;29;20055;-82
2022/08/11 04:38:13;;;;;;;21.73;14.40;;;16.30;99.90;;;;;;4954689;29;20043;-82
2022/08/11 04:41:16;;;;;;;19.70;13.13;;;16.30;99.90;;;;;;4953941;28;20423;-82
2022/08/11 04:44:10;;;;;;;18.52;13.23;;;16.30;99.90;;;;;;4953597;29;20043;-81
2022/08/11 04:47:06;;;;;;;19.92;13.48;;;16.30;99.90;;;;;;4953875;29;20141;-82
2022/08/11 05:01:49;;;;;;;18.35;14.48;;;16.20;99.90;;;;;;4957940;28;20086;-81
2022/08/11 05:07:19;;;;;;;19.17;12.82;;;16.20;99.90;;;;;;4958823;29;20074;-81
2022/08/11 05:09:57;;;;;;;19.95;13.88;;;16.20;99.90;;;;;;4948638;29;20042;-75
2022/08/11 05:12:53;;;;;;;15.73;12.10;;;16.30;99.90;;;;;;4951128;28;20094;-80
2022/08/11 05:36:04;;;;;;;17.80;13.45;;;16.50;99.90;;;;;;4937298;29;20051;-79
2022/08/11 05:58:05;;;;;;;23.25;13.77;;;16.60;99.90;;;;;;4937919;29;20051;-79
2022/08/11 06:00:44;;;;;;;20.48;14.20;;;16.70;99.90;;;;;;4936207;29;20067;-80
2022/08/11 06:03:18;;;;;;;21.02;14.65;;;16.70;99.90;;;;;;4935819;29;20171;-78
2022/08/11 06:05:44;;;;;;;21.60;14.68;;;16.80;99.90;;;;;;4937995;29;20043;-80
2022/08/11 06:08:12;;;;;;;19.17;14.45;;;16.80;99.90;;;;;;4937876;29;20055;-80
2022/08/11 06:10:43;;;;;;;21.30;15.00;;;16.80;99.90;;;;;;4936613;29;20138;-81
2022/08/11 06:13:13;;;;;;;22.17;14.57;;;16.80;99.90;;;;;;4936506;29;20051;-80
2022/08/11 06:15:48;;;;;;;17.77;13.00;;;16.90;99.90;;;;;;4937943;29;20055;-80
2022/08/11 06:18:15;;;;;;;18.08;13.30;;;16.90;99.90;;;;;;4937767;29;20095;-80
2022/08/11 06:20:56;;;;;;;19.75;13.00;;;17.00;99.90;;;;;;4936077;29;20047;-79
2022/08/11 06:23:24;;;;;;;17.70;13.13;;;17.00;99.90;;;;;;4937638;29;20073;-80
2022/08/11 06:25:54;;;;;;;17.00;12.00;;;17.00;99.90;;;;;;4936282;29;20472;-79
2022/08/11 06:28:30;;;;;;;22.80;12.00;;;17.10;99.90;;;;;;4936601;29;20050;-80
2022/08/11 06:30:57;;;;;;;16.90;11.25;;;17.20;99.90;;;;;;4937373;29;20051;-81
2022/08/11 06:33:46;;;;;;;15.32;11.32;;;17.20;99.90;;;;;;4935909;29;20087;-80
2022/08/11 06:36:20;;;;;;;16.10;10.73;;;17.30;99.90;;;;;;4952404;29;20043;-80
2022/08/11 06:39:05;;;;;;;16.45;10.18;;;17.30;99.90;;;;;;4935962;29;20491;-80
2022/08/11 06:41:45;;;;;;;12.13;9.18;;;17.30;99.90;;;;;;4936211;29;20571;-81
2022/08/11 06:44:11;;;;;;;14.32;10.02;;;17.40;99.90;;;;;;4937414;29;20065;-79
2022/08/11 06:46:49;;;;;;;11.50;8.82;;;17.40;99.90;;;;;;4950718;29;20090;-79
2022/08/11 06:52:12;;;;;;;14.20;8.20;;;17.50;99.90;;;;;;4953919;28;20063;-79
2022/08/11 06:55:03;;;;;;;13.07;8.55;;;17.60;99.90;;;;;;4953465;29;20035;-79
2022/08/11 07:00:28;;;;;;;10.75;7.80;;;17.70;99.90;;;;;;4954499;28;20051;-79
2022/08/11 07:03:07;;;;;;;11.77;7.57;;;17.80;99.90;;;;;;4954792;29;20439;-78
2022/08/11 07:05:36;;;;;;;9.57;6.50;;;17.90;99.90;;;;;;4956352;28;20417;-79
2022/08/11 07:28:54;;;;;;;10.60;5.78;;;18.20;99.90;;;;;;4953571;29;20047;-80
2022/08/11 07:28:55;;;;;;;6.32;4.28;;;18.50;99.90;;;;;;4954306;29;20040;-79
2022/08/11 07:31:24;;;;;;;5.78;3.83;;;18.60;99.90;;;;;;4954022;28;20097;-80
2022/08/11 07:33:57;;;;;;;6.82;4.25;;;18.70;99.90;;;;;;4954618;29;20039;-79
2022/08/11 07:36:27;;;;;;;6.22;3.50;;;18.80;99.90;;;;;;4955702;29;20043;-79
2022/08/11 07:38:55;;;;;;;6.25;3.08;;;18.90;99.90;;;;;;4955564;29;20058;-79
2022/08/11 07:41:22;;;;;;;7.93;3.30;;;19.00;99.90;;;;;;4953842;28;20057;-79
2022/08/11 07:43:52;;;;;;;4.47;3.33;;;19.00;99.90;;;;;;4953935;29;20491;-78
2022/08/11 07:54:37;;;;;;;;;;;19.50;99.90;;;;;;4955822;28;20055;-78
2022/08/11 08:19:12;;;;;;;5.80;2.10;;;20.60;99.90;;;;;;4953552;29;20079;-79
2022/08/11 08:21:38;;;;;;;4.93;2.17;;;20.70;99.90;;;;;;4950161;28;20043;-79
2022/08/11 08:24:06;;;;;;;2.85;1.90;;;20.90;99.90;;;;;;4955113;28;20039;-81
2022/08/11 08:32:05;;;;;;;4.15;1.80;;;21.20;99.90;;;;;;4957121;28;20118;-81
2022/08/11 08:34:36;;;;;;;3.65;1.83;;;21.30;99.90;;;;;;4957177;29;20062;-82
2022/08/11 08:37:04;;;;;;;4.72;1.77;;;21.50;99.90;;;;;;4957829;29;20061;-82
2022/08/11 08:39:33;;;;;;;8.23;2.08;;;21.50;99.90;;;;;;4958702;29;20538;-82
2022/08/11 08:42:01;;;;;;;4.22;1.80;;;21.60;99.90;;;;;;4956595;28;20535;-81
2022/08/11 08:44:31;;;;;;;4.40;1.50;;;21.80;99.90;;;;;;4958045;29;20054;-81
2022/08/11 08:46:58;;;;;;;5.25;1.67;;;21.90;99.90;;;;;;4957447;29;20050;-82
2022/08/11 08:49:36;;;;;;;6.07;2.00;;;22.00;99.90;;;;;;4958072;29;20434;-81
2022/08/11 08:52:05;;;;;;;6.05;1.60;;;22.10;99.90;;;;;;4959668;28;20077;-89
2022/08/11 08:54:38;;;;;;;3.30;1.70;;;22.20;99.90;;;;;;4957579;29;20352;-84
2022/08/11 08:57:06;;;;;;;2.58;1.40;;;22.30;99.90;;;;;;4957882;29;20058;-85
2022/08/11 08:59:39;;;;;;;4.03;1.40;;;22.40;99.90;;;;;;4957274;29;20050;-84
2022/08/11 09:02:06;;;;;;;3.45;1.70;;;22.70;99.90;;;;;;4956565;28;20102;-85
2022/08/11 09:04:33;;;;;;;6.18;1.50;;;22.80;99.90;;;;;;4957375;29;20058;-81
2022/08/11 09:07:07;;;;;;;2.35;1.70;;;22.90;99.90;;;;;;4957292;29;20047;-81
2022/08/11 09:09:33;;;;;;;6.80;1.85;;;23.00;99.90;;;;;;4957712;29;20111;-82
2022/08/11 09:12:00;;;;;;;3.63;1.90;;;23.20;99.90;;;;;;4956807;28;20415;-81
2022/08/11 09:17:22;;;;;;;3.90;1.38;;;23.50;99.90;;;;;;4956970;28;20043;-80
2022/08/11 09:19:59;;;;;;;5.07;1.77;;;23.80;99.90;;;;;;4958019;28;20047;-81
2022/08/11 09:28:09;;;;;;;8.43;2.03;;;24.30;99.90;;;;;;4943439;29;20051;-80
2022/08/11 09:30:35;;;;;;;4.30;1.77;;;24.50;99.90;;;;;;4955986;28;20043;-79
2022/08/11 09:33:03;;;;;;;3.47;1.80;;;24.60;99.90;;;;;;4954451;28;20043;-80
2022/08/11 09:35:33;;;;;;;5.32;1.90;;;24.80;99.90;;;;;;4956437;29;20078;-81
2022/08/11 09:40:47;;;;;;;3.08;1.98;;;25.10;99.90;;;;;;4956173;28;20051;-80
2022/08/11 09:46:00;;;;;;;5.63;2.22;;;25.50;99.90;;;;;;4936846;29;20135;-80
2022/08/11 09:48:30;;;;;;;5.20;2.03;;;25.80;99.90;;;;;;4936953;29;20047;-84
2022/08/11 09:50:59;;;;;;;4.82;2.13;;;25.90;99.90;;;;;;4937263;29;20055;-82
2022/08/11 09:53:26;;;;;;;6.78;1.63;;;26.10;99.90;;;;;;4937288;29;20110;-83
2022/08/11 09:55:53;;;;;;;4.30;1.70;;;26.20;99.90;;;;;;4936717;29;20044;-79
2022/08/11 09:58:20;;;;;;;5.95;1.65;;;26.50;97.60;;;;;;4938568;29;20043;-85
2022/08/11 10:00:48;;;;;;;4.90;1.83;;;26.60;96.30;;;;;;4921632;29;20042;-84
2022/08/11 10:03:21;;;;;;;5.00;2.00;;;26.70;95.40;;;;;;4937530;29;20040;-84
2022/08/11 10:08:54;;;;;;;2.65;1.70;;;27.00;97.10;;;;;;4938170;29;20086;-82
2022/08/11 10:11:23;;;;;;;3.30;1.63;;;27.10;95.40;;;;;;4938121;29;20082;-85
2022/08/11 10:16:42;;;;;;;3.03;1.65;;;27.30;95.10;;;;;;4938291;29;20048;-82
2022/08/11 10:19:09;;;;;;;4.43;1.35;;;27.40;95.40;;;;;;4937241;29;20101;-82
2022/08/11 10:21:43;;;;;;;2.92;1.77;;;27.50;94.10;;;;;;4937556;29;20043;-78
2022/08/11 10:26:59;;;;;;;5.75;1.70;;;27.80;93.10;;;;;;4937946;29;20460;-79
2022/08/11 10:35:13;;;;;;;4.25;1.55;;;28.30;86.90;;;;;;4936733;29;20047;-84
2022/08/11 10:37:41;;;;;;;4.05;1.60;;;28.40;83.50;;;;;;4937475;29;20507;-83
2022/08/11 10:40:09;;;;;;;4.07;1.50;;;28.50;80.40;;;;;;4936815;29;20043;-82
2022/08/11 10:48:06;;;;;;;2.72;1.40;;;28.70;83.00;;;;;;4937466;29;19930;-82
2022/08/11 10:58:49;;;;;;;2.03;1.30;;;29.20;77.20;;;;;;4935816;29;20131;-81
2022/08/11 11:01:24;;;;;;;3.88;1.45;;;29.30;76.20;;;;;;4935714;29;20051;-83
2022/08/11 11:03:53;;;;;;;4.50;1.73;;;29.30;72.20;;;;;;4935726;29;20052;-82
2022/08/11 11:06:44;;;;;;;4.28;1.40;;;29.30;72.30;;;;;;4935501;29;20122;-82
2022/08/11 11:09:18;;;;;;;2.45;1.35;;;29.40;73.80;;;;;;4935439;29;20040;-83
2022/08/11 11:20:15;;;;;;;3.65;1.55;;;29.60;69.10;;;;;;4935496;29;20070;-83
2022/08/11 11:22:46;;;;;;;5.80;1.70;;;29.60;68.50;;;;;;4935183;29;20048;-83
2022/08/11 11:25:29;;;;;;;3.78;1.58;;;29.60;69.10;;;;;;4936640;29;20396;-82
2022/08/11 11:28:13;;;;;;;4.35;1.30;;;29.70;70.70;;;;;;4935838;29;20079;-82
2022/08/11 11:31:05;;;;;;;3.05;1.50;;;29.70;70.00;;;;;;4936617;29;20044;-82
2022/08/11 11:33:49;;;;;;;3.95;1.50;;;29.80;70.70;;;;;;4935205;29;20046;-76
2022/08/11 11:36:30;;;;;;;2.97;1.30;;;29.90;67.50;;;;;;4935160;29;20054;-83
2022/08/11 11:38:57;;;;;;;4.25;1.40;;;29.90;67.00;;;;;;4935134;29;20079;-83
2022/08/11 11:41:24;;;;;;;2.88;1.50;;;29.90;67.20;;;;;;4936503;29;20051;-83
2022/08/11 11:43:55;;;;;;;2.08;1.58;;;30.00;67.70;;;;;;4936557;29;20040;-81
2022/08/11 11:46:23;;;;;;;1.98;1.42;;;30.10;66.80;;;;;;4936772;29;20050;-81
2022/08/11 11:48:49;;;;;;;3.17;1.58;;;30.10;65.30;;;;;;4934965;29;20047;-82
2022/08/11 11:51:15;;;;;;;3.22;1.60;;;30.20;65.70;;;;;;4919225;29;20056;-82
2022/08/11 11:53:44;;;;;;;6.15;1.52;;;30.20;64.70;;;;;;4935242;29;20054;-84
2022/08/11 11:56:11;;;;;;;3.10;1.38;;;30.20;64.50;;;;;;4935028;29;20103;-82
2022/08/11 12:01:24;;;;;;;3.92;1.30;;;30.40;64.10;;;;;;4936898;29;20484;-83
2022/08/11 12:03:52;;;;;;;4.93;1.52;;;30.50;65.80;;;;;;4939130;29;20401;-83
2022/08/11 12:06:22;;;;;;;3.55;1.52;;;30.60;66.10;;;;;;4941063;29;20079;-86
2022/08/11 12:08:50;;;;;;;3.00;1.30;;;30.60;65.00;;;;;;4940232;29;20043;-85
2022/08/11 12:14:05;;;;;;;3.08;1.30;;;30.60;63.40;;;;;;4940418;29;20507;-83
2022/08/11 12:16:34;;;;;;;4.20;1.58;;;30.80;64.20;;;;;;4940997;29;20050;-83
2022/08/11 12:19:01;;;;;;;4.03;1.30;;;30.90;63.50;;;;;;4922944;29;20440;-85
2022/08/11 12:21:28;;;;;;;2.63;1.30;;;31.00;63.70;;;;;;4939147;29;20094;-84
2022/08/11 12:29:26;;;;;;;4.40;1.52;;;31.00;60.30;;;;;;4946390;29;20102;-88
2022/08/11 12:31:53;;;;;;;5.28;1.42;;;30.90;58.70;;;;;;4944932;29;20455;-85
2022/08/11 12:34:19;;;;;;;4.32;1.45;;;30.80;59.70;;;;;;4938586;29;20044;-86
2022/08/11 12:37:02;;;;;;;4.43;1.30;;;31.00;60.60;;;;;;4938248;29;20047;-85
2022/08/11 12:45:28;;;;;;;3.22;1.10;;;31.20;62.20;;;;;;4938303;29;20052;-83
2022/08/11 12:54:12;;;;;;;3.28;1.23;;;31.30;59.70;;;;;;4947123;29;20059;-83
2022/08/11 13:05:15;;;;;;;2.38;1.20;;;31.10;58.30;;;;;;4934014;29;20159;-77
2022/08/11 13:07:45;;;;;;;2.60;1.20;;;31.30;59.50;;;;;;4950428;29;20413;-77
2022/08/11 13:12:46;;;;;;;1.80;1.30;;;31.30;57.50;;;;;;4951554;29;20039;-77
2022/08/11 13:13:02;;;;;;;6.70;1.35;;;31.20;58.30;;;;;;4943343;29;20056;-86
2022/08/11 13:15:27;;;;;;;6.07;1.35;;;31.30;57.30;;;;;;4938936;29;20079;-83
2022/08/11 13:17:54;;;;;;;1.75;1.20;;;31.20;56.40;;;;;;4938900;29;20130;-83
2022/08/11 13:20:23;;;;;;;4.28;1.42;;;31.20;56.20;;;;;;4939764;29;20051;-84
2022/08/11 13:22:54;;;;;;;5.03;1.48;;;31.30;56.80;;;;;;4937732;29;20049;-85
2022/08/11 13:25:25;;;;;;;3.92;1.40;;;31.40;57.40;;;;;;4939536;29;20050;-83
2022/08/11 13:27:55;;;;;;;2.95;1.20;;;31.50;57.40;;;;;;4939444;29;20055;-84
2022/08/11 13:33:09;;;;;;;1.90;1.13;;;31.70;56.50;;;;;;4937509;29;20056;-85
2022/08/11 13:35:37;;;;;;;3.33;1.20;;;31.80;56.30;;;;;;4937482;29;20063;-86
2022/08/11 13:38:04;;;;;;;2.90;1.17;;;31.80;55.80;;;;;;4937050;29;20051;-84
2022/08/11 13:40:31;;;;;;;2.80;1.10;;;31.80;55.50;;;;;;4921316;29;20054;-80
2022/08/11 13:43:00;;;;;;;3.22;1.08;;;31.90;56.20;;;;;;4922044;29;20051;-82
2022/08/11 13:45:26;;;;;;;3.65;1.20;;;31.90;55.80;;;;;;4937252;29;20043;-81
2022/08/11 13:47:56;;;;;;;3.47;1.15;;;32.00;56.00;;;;;;4938984;29;20071;-82
2022/08/11 13:51:29;;;;;;;5.20;1.38;;;32.00;55.50;;;;;;4937590;29;20040;-83
2022/08/11 13:53:11;;;;;;;5.68;1.25;;;31.90;54.50;;;;;;4937910;29;20044;-85
2022/08/11 13:55:39;;;;;;;2.53;1.20;;;31.90;55.40;;;;;;4937532;29;20055;-85
2022/08/11 13:58:08;;;;;;;2.53;1.00;;;31.90;55.70;;;;;;4921242;29;20075;-83
2022/08/11 14:00:34;;;;;;;2.78;1.08;;;32.10;55.50;;;;;;4936609;29;20158;-84
2022/08/11 14:03:02;;;;;;;4.88;1.25;;;32.10;54.40;;;;;;4938592;29;20051;-85
2022/08/11 14:05:35;;;;;;;2.45;1.08;;;32.10;54.30;;;;;;4938626;29;20120;-86
2022/08/11 14:08:06;;;;;;;5.78;1.13;;;32.10;55.60;;;;;;4938064;29;20480;-85
2022/08/11 14:10:34;;;;;;;2.72;1.20;;;32.10;54.50;;;;;;4937372;29;20039;-86
2022/08/11 14:15:52;;;;;;;4.32;1.45;;;32.10;53.80;;;;;;4937775;29;20102;-86
2022/08/11 14:18:21;;;;;;;3.38;1.25;;;31.90;53.10;;;;;;4936273;29;20111;-87
2022/08/11 14:23:43;;;;;;;2.40;1.30;;;31.90;54.20;;;;;;4937011;29;20411;-82
2022/08/11 14:26:22;;;;;;;3.63;1.20;;;31.90;54.70;;;;;;4937503;29;20031;-83
2022/08/11 14:28:52;;;;;;;2.10;1.00;;;32.00;54.80;;;;;;4920040;29;20059;-85
2022/08/11 14:31:18;;;;;;;3.33;1.05;;;32.00;56.10;;;;;;4937256;29;20054;-84
2022/08/11 14:33:45;;;;;;;3.92;1.23;;;32.10;55.40;;;;;;4936793;29;20416;-86
2022/08/11 14:36:12;;;;;;;4.13;1.20;;;32.00;54.90;;;;;;4920002;29;20051;-84
2022/08/11 14:38:39;;;;;;;2.85;1.15;;;32.00;55.40;;;;;;4937146;29;20035;-83
2022/08/11 14:49:24;;;;;;;5.18;1.20;;;32.10;54.40;;;;;;4937071;29;20507;-83
2022/08/11 14:51:56;;;;;;;2.03;1.10;;;32.10;54.90;;;;;;4935134;29;20126;-81
2022/08/11 14:57:12;;;;;;;3.42;1.10;;;32.10;55.50;;;;;;4935286;29;20422;-82
2022/08/11 14:59:38;;;;;;;3.65;1.17;;;32.10;54.00;;;;;;4935625;29;20051;-85
2022/08/11 15:04:50;;;;;;;3.78;1.40;;;32.10;53.80;;;;;;4945909;29;20044;-83
2022/08/11 15:07:16;;;;;;;3.13;1.15;;;32.10;53.80;;;;;;4952032;29;20483;-82
2022/08/11 15:09:43;;;;;;;3.25;1.20;;;32.10;53.30;;;;;;4954301;29;20041;-85
2022/08/11 15:12:17;;;;;;;2.10;0.98;;;32.00;53.50;;;;;;4954545;28;20055;-82
2022/08/11 15:17:33;;;;;;;3.13;1.50;;;32.00;53.10;;;;;;4955168;28;20061;-83
2022/08/11 15:25:37;;;;;;;4.40;1.05;;;32.00;53.10;;;;;;4945399;29;20059;-84
2022/08/11 15:39:21;;;;;;;2.05;1.10;;;31.90;53.20;;;;;;4952602;29;20054;-81
2022/08/11 15:47:43;;;;;;;3.20;1.10;;;31.80;54.00;;;;;;4934688;29;20050;-84
2022/08/11 15:50:18;;;;;;;5.75;1.35;;;31.80;53.60;;;;;;4936090;29;20506;-83
2022/08/11 15:52:55;;;;;;;3.72;1.38;;;31.70;53.30;;;;;;4939437;29;20084;-84
2022/08/11 15:55:22;;;;;;;3.25;1.27;;;31.70;53.20;;;;;;4942870;29;20055;-83
2022/08/11 16:06:12;;;;;;;3.20;1.10;;;31.60;53.90;;;;;;4934767;29;20043;-82
2022/08/11 16:08:40;;;;;;;4.85;1.20;;;31.60;54.90;;;;;;4919481;29;20126;-85
2022/08/11 16:11:08;;;;;;;3.55;1.20;;;31.50;54.40;;;;;;4935731;29;20091;-83
2022/08/11 16:16:15;;;;;;;2.78;1.10;;;31.40;55.70;;;;;;4936168;29;20060;-83
2022/08/11 16:18:55;;;;;;;3.90;1.33;;;31.40;55.80;;;;;;4934665;29;20440;-84
2022/08/11 16:21:35;;;;;;;2.78;0.90;;;31.40;55.70;;;;;;4934577;29;20040;-85
2022/08/11 16:24:05;;;;;;;3.45;1.10;;;31.40;56.70;;;;;;4934535;29;20056;-85
2022/08/11 16:26:32;;;;;;;4.38;1.20;;;31.30;55.80;;;;;;4945041;29;20043;-83
2022/08/11 16:29:00;;;;;;;3.35;1.30;;;31.20;55.90;;;;;;4953480;29;20040;-80
2022/08/11 16:31:27;;;;;;;4.25;1.20;;;31.10;56.30;;;;;;4955050;28;20066;-83
2022/08/11 16:33:55;;;;;;;3.45;1.20;;;31.00;56.70;;;;;;4955194;28;20039;-83
2022/08/11 16:39:10;;;;;;;2.30;1.30;;;30.90;57.20;;;;;;4954915;28;20054;-84
2022/08/11 16:47:15;;;;;;;3.20;1.30;;;30.60;58.70;;;;;;4955110;28;20062;-85
2022/08/11 16:49:52;;;;;;;8.88;1.52;;;30.50;58.00;;;;;;4957540;28;20039;-82
2022/08/11 16:52:19;;;;;;;3.00;1.55;;;30.40;59.10;;;;;;4958989;28;20483;-85
2022/08/11 16:54:47;;;;;;;6.57;1.20;;;30.30;59.60;;;;;;4955910;29;20075;-83
2022/08/11 17:00:11;;;;;;;2.50;1.17;;;30.10;59.20;;;;;;4958495;28;20058;-82
2022/08/11 17:14:47;;;;;;;4.72;1.40;;;29.50;60.70;;;;;;4921157;29;20446;-82
2022/08/11 17:17:16;;;;;;;3.80;1.50;;;29.30;60.60;;;;;;4953281;29;20151;-83
2022/08/11 17:19:57;;;;;;;5.45;1.40;;;29.20;60.50;;;;;;4955369;28;20364;-82
2022/08/11 17:25:10;;;;;;;3.15;1.25;;;29.10;62.00;;;;;;4955482;29;20353;-82
2022/08/11 17:27:37;;;;;;;3.97;1.20;;;28.90;61.60;;;;;;4957556;28;20047;-82
2022/08/11 17:30:06;;;;;;;4.65;1.40;;;28.90;62.40;;;;;;4957214;29;20055;-83
2022/08/11 17:35:31;;;;;;;4.70;1.52;;;28.70;62.40;;;;;;4955256;29;20126;-82
2022/08/11 17:38:05;;;;;;;3.78;1.40;;;28.70;63.40;;;;;;4954272;29;20058;-82
2022/08/11 17:40:35;;;;;;;8.32;1.52;;;28.60;63.70;;;;;;4956231;28;20122;-82
2022/08/11 17:48:42;;;;;;;4.90;1.52;;;28.80;65.50;;;;;;4956171;29;20044;-82
2022/08/11 17:51:11;;;;;;;7.32;1.70;;;28.60;65.70;;;;;;4957583;28;20102;-82
2022/08/11 18:03:27;;;;;;;;;;;28.00;69.00;;;;;;4956380;28;20069;-81
2022/08/11 18:04:45;;;;;;;3.55;1.80;;;27.90;69.30;;;;;;4956281;29;19922;-82
